sensor_id;sensor_type;location;lat;lon;timestamp;temperature;humidity
69436;SHT31;56625;54.322;18.582;2023-10-08T00:01:19;9.19;64.59
69436;SHT31;56625;54.322;18.582;2023-10-08T00:03:51;9.15;64.59
69436;SHT31;56625;54.322;18.582;2023-10-08T00:06:26;9.12;64.70
69436;SHT31;56625;54.322;18.582;2023-10-08T00:08:55;9.09;64.75
69436;SHT31;56625;54.322;18.582;2023-10-08T00:11:37;9.05;64.70
69436;SHT31;56625;54.322;18.582;2023-10-08T00:14:07;9.02;64.62
69436;SHT31;56625;54.322;18.582;2023-10-08T00:16:39;8.99;64.40
69436;SHT31;56625;54.322;18.582;2023-10-08T00:19:07;8.98;64.17
69436;SHT31;56625;54.322;18.582;2023-10-08T00:21:36;8.95;64.06
69436;SHT31;56625;54.322;18.582;2023-10-08T00:24:06;8.92;64.04
69436;SHT31;56625;54.322;18.582;2023-10-08T00:26:34;8.87;63.81
69436;SHT31;56625;54.322;18.582;2023-10-08T00:29:08;8.84;63.82
69436;SHT31;56625;54.322;18.582;2023-10-08T00:31:44;8.81;63.89
69436;SHT31;56625;54.322;18.582;2023-10-08T00:34:13;8.77;63.98
69436;SHT31;56625;54.322;18.582;2023-10-08T00:36:42;8.72;63.97
69436;SHT31;56625;54.322;18.582;2023-10-08T00:39:13;8.68;63.94
69436;SHT31;56625;54.322;18.582;2023-10-08T00:41:51;8.63;63.90
69436;SHT31;56625;54.322;18.582;2023-10-08T00:44:39;8.58;63.91
69436;SHT31;56625;54.322;18.582;2023-10-08T00:47:16;8.53;63.58
69436;SHT31;56625;54.322;18.582;2023-10-08T00:49:51;8.50;63.46
69436;SHT31;56625;54.322;18.582;2023-10-08T00:52:32;8.46;63.50
69436;SHT31;56625;54.322;18.582;2023-10-08T00:55:24;8.39;63.63
69436;SHT31;56625;54.322;18.582;2023-10-08T00:57:57;8.35;63.62
69436;SHT31;56625;54.322;18.582;2023-10-08T01:00:35;8.30;63.69
69436;SHT31;56625;54.322;18.582;2023-10-08T01:03:09;8.27;63.75
69436;SHT31;56625;54.322;18.582;2023-10-08T01:05:44;8.21;63.93
69436;SHT31;56625;54.322;18.582;2023-10-08T01:08:16;8.17;64.05
69436;SHT31;56625;54.322;18.582;2023-10-08T01:11:22;8.13;64.17
69436;SHT31;56625;54.322;18.582;2023-10-08T01:14:13;8.08;64.20
69436;SHT31;56625;54.322;18.582;2023-10-08T01:16:42;8.05;64.24
69436;SHT31;56625;54.322;18.582;2023-10-08T01:19:18;8.02;64.08
69436;SHT31;56625;54.322;18.582;2023-10-08T01:21:47;8.00;63.79
69436;SHT31;56625;54.322;18.582;2023-10-08T01:24:15;7.97;63.60
69436;SHT31;56625;54.322;18.582;2023-10-08T01:26:44;7.95;63.49
69436;SHT31;56625;54.322;18.582;2023-10-08T01:29:13;7.93;63.33
69436;SHT31;56625;54.322;18.582;2023-10-08T01:31:47;7.90;63.01
69436;SHT31;56625;54.322;18.582;2023-10-08T01:34:16;7.88;62.86
69436;SHT31;56625;54.322;18.582;2023-10-08T01:36:45;7.85;62.72
69436;SHT31;56625;54.322;18.582;2023-10-08T01:39:13;7.82;62.77
69436;SHT31;56625;54.322;18.582;2023-10-08T01:41:44;7.78;62.77
69436;SHT31;56625;54.322;18.582;2023-10-08T01:44:14;7.74;62.79
69436;SHT31;56625;54.322;18.582;2023-10-08T01:46:43;7.70;62.73
69436;SHT31;56625;54.322;18.582;2023-10-08T01:49:11;7.66;62.69
69436;SHT31;56625;54.322;18.582;2023-10-08T01:51:42;7.64;62.40
69436;SHT31;56625;54.322;18.582;2023-10-08T01:54:14;7.61;62.44
69436;SHT31;56625;54.322;18.582;2023-10-08T01:56:46;7.59;62.16
69436;SHT31;56625;54.322;18.582;2023-10-08T01:59:14;7.57;62.09
69436;SHT31;56625;54.322;18.582;2023-10-08T02:01:43;7.56;61.63
69436;SHT31;56625;54.322;18.582;2023-10-08T02:04:13;7.54;61.50
69436;SHT31;56625;54.322;18.582;2023-10-08T02:06:44;7.53;61.47
69436;SHT31;56625;54.322;18.582;2023-10-08T02:09:13;7.49;61.12
69436;SHT31;56625;54.322;18.582;2023-10-08T02:11:43;7.47;61.11
69436;SHT31;56625;54.322;18.582;2023-10-08T02:14:14;7.47;61.13
69436;SHT31;56625;54.322;18.582;2023-10-08T02:16:43;7.45;61.01
69436;SHT31;56625;54.322;18.582;2023-10-08T02:19:12;7.42;60.99
69436;SHT31;56625;54.322;18.582;2023-10-08T02:21:41;7.38;60.71
69436;SHT31;56625;54.322;18.582;2023-10-08T02:24:09;7.37;60.67
69436;SHT31;56625;54.322;18.582;2023-10-08T02:26:39;7.35;60.60
69436;SHT31;56625;54.322;18.582;2023-10-08T02:29:08;7.31;60.63
69436;SHT31;56625;54.322;18.582;2023-10-08T02:31:40;7.28;60.70
69436;SHT31;56625;54.322;18.582;2023-10-08T02:34:08;7.25;60.72
69436;SHT31;56625;54.322;18.582;2023-10-08T02:36:39;7.22;60.78
69436;SHT31;56625;54.322;18.582;2023-10-08T02:39:10;7.19;60.74
69436;SHT31;56625;54.322;18.582;2023-10-08T02:41:54;7.16;60.64
69436;SHT31;56625;54.322;18.582;2023-10-08T02:44:40;7.12;60.74
69436;SHT31;56625;54.322;18.582;2023-10-08T02:47:11;7.09;60.64
69436;SHT31;56625;54.322;18.582;2023-10-08T02:49:49;7.06;60.43
69436;SHT31;56625;54.322;18.582;2023-10-08T02:52:17;7.04;60.41
69436;SHT31;56625;54.322;18.582;2023-10-08T02:54:45;7.02;60.34
69436;SHT31;56625;54.322;18.582;2023-10-08T02:57:13;7.01;60.30
69436;SHT31;56625;54.322;18.582;2023-10-08T02:59:44;6.97;60.27
69436;SHT31;56625;54.322;18.582;2023-10-08T03:02:13;6.95;60.15
69436;SHT31;56625;54.322;18.582;2023-10-08T03:04:48;6.93;60.10
69436;SHT31;56625;54.322;18.582;2023-10-08T03:07:20;6.90;60.03
69436;SHT31;56625;54.322;18.582;2023-10-08T03:10:00;6.89;60.17
69436;SHT31;56625;54.322;18.582;2023-10-08T03:12:32;6.85;60.15
69436;SHT31;56625;54.322;18.582;2023-10-08T03:15:04;6.83;60.17
69436;SHT31;56625;54.322;18.582;2023-10-08T03:17:52;6.80;60.27
69436;SHT31;56625;54.322;18.582;2023-10-08T03:20:20;6.79;60.36
69436;SHT31;56625;54.322;18.582;2023-10-08T03:22:57;6.76;60.31
69436;SHT31;56625;54.322;18.582;2023-10-08T03:25:25;6.75;60.34
69436;SHT31;56625;54.322;18.582;2023-10-08T03:27:55;6.73;60.48
69436;SHT31;56625;54.322;18.582;2023-10-08T03:30:26;6.71;60.62
69436;SHT31;56625;54.322;18.582;2023-10-08T03:32:54;6.69;60.71
69436;SHT31;56625;54.322;18.582;2023-10-08T03:35:23;6.68;60.73
69436;SHT31;56625;54.322;18.582;2023-10-08T03:37:55;6.66;61.02
69436;SHT31;56625;54.322;18.582;2023-10-08T03:40:46;6.62;61.21
69436;SHT31;56625;54.322;18.582;2023-10-08T03:43:18;6.58;61.28
69436;SHT31;56625;54.322;18.582;2023-10-08T03:46:01;6.56;61.34
69436;SHT31;56625;54.322;18.582;2023-10-08T03:48:42;6.53;61.44
69436;SHT31;56625;54.322;18.582;2023-10-08T03:51:12;6.50;61.46
69436;SHT31;56625;54.322;18.582;2023-10-08T03:53:41;6.47;61.62
69436;SHT31;56625;54.322;18.582;2023-10-08T03:56:33;6.43;61.84
69436;SHT31;56625;54.322;18.582;2023-10-08T03:59:04;6.39;62.06
69436;SHT31;56625;54.322;18.582;2023-10-08T04:01:44;6.35;62.29
69436;SHT31;56625;54.322;18.582;2023-10-08T04:04:12;6.31;62.58
69436;SHT31;56625;54.322;18.582;2023-10-08T04:06:42;6.27;62.93
69436;SHT31;56625;54.322;18.582;2023-10-08T04:09:17;6.23;63.21
69436;SHT31;56625;54.322;18.582;2023-10-08T04:11:51;6.20;63.40
69436;SHT31;56625;54.322;18.582;2023-10-08T04:14:25;6.18;63.67
69436;SHT31;56625;54.322;18.582;2023-10-08T04:16:55;6.15;63.89
69436;SHT31;56625;54.322;18.582;2023-10-08T04:19:23;6.12;64.13
69436;SHT31;56625;54.322;18.582;2023-10-08T04:21:55;6.09;64.30
69436;SHT31;56625;54.322;18.582;2023-10-08T04:24:26;6.09;64.37
69436;SHT31;56625;54.322;18.582;2023-10-08T04:27:03;6.08;64.44
69436;SHT31;56625;54.322;18.582;2023-10-08T04:29:37;6.09;64.51
69436;SHT31;56625;54.322;18.582;2023-10-08T04:32:05;6.10;64.49
69436;SHT31;56625;54.322;18.582;2023-10-08T04:34:40;6.12;64.49
69436;SHT31;56625;54.322;18.582;2023-10-08T04:37:13;6.12;64.68
69436;SHT31;56625;54.322;18.582;2023-10-08T04:39:45;6.13;64.66
69436;SHT31;56625;54.322;18.582;2023-10-08T04:42:16;6.15;64.68
69436;SHT31;56625;54.322;18.582;2023-10-08T04:44:53;6.19;64.54
69436;SHT31;56625;54.322;18.582;2023-10-08T04:47:22;6.22;64.50
69436;SHT31;56625;54.322;18.582;2023-10-08T04:50:00;6.24;64.50
69436;SHT31;56625;54.322;18.582;2023-10-08T04:52:32;6.24;64.46
69436;SHT31;56625;54.322;18.582;2023-10-08T04:55:02;6.25;64.22
69436;SHT31;56625;54.322;18.582;2023-10-08T04:57:40;6.27;64.00
69436;SHT31;56625;54.322;18.582;2023-10-08T05:00:10;6.29;64.01
69436;SHT31;56625;54.322;18.582;2023-10-08T05:02:43;6.30;63.91
69436;SHT31;56625;54.322;18.582;2023-10-08T05:05:22;6.31;63.87
69436;SHT31;56625;54.322;18.582;2023-10-08T05:07:50;6.34;63.84
69436;SHT31;56625;54.322;18.582;2023-10-08T05:10:18;6.36;63.72
69436;SHT31;56625;54.322;18.582;2023-10-08T05:12:52;6.38;63.58
69436;SHT31;56625;54.322;18.582;2023-10-08T05:15:33;6.42;63.52
69436;SHT31;56625;54.322;18.582;2023-10-08T05:18:09;6.45;63.41
69436;SHT31;56625;54.322;18.582;2023-10-08T05:20:46;6.49;63.28
69436;SHT31;56625;54.322;18.582;2023-10-08T05:23:17;6.50;63.39
69436;SHT31;56625;54.322;18.582;2023-10-08T05:25:57;6.52;63.32
69436;SHT31;56625;54.322;18.582;2023-10-08T05:28:26;6.53;63.32
69436;SHT31;56625;54.322;18.582;2023-10-08T05:30:54;6.57;62.93
69436;SHT31;56625;54.322;18.582;2023-10-08T05:33:41;6.64;63.04
69436;SHT31;56625;54.322;18.582;2023-10-08T05:36:28;6.71;62.81
69436;SHT31;56625;54.322;18.582;2023-10-08T05:39:17;6.77;62.70
69436;SHT31;56625;54.322;18.582;2023-10-08T05:41:51;6.82;62.43
69436;SHT31;56625;54.322;18.582;2023-10-08T05:44:37;6.91;62.21
69436;SHT31;56625;54.322;18.582;2023-10-08T05:47:08;6.98;62.12
69436;SHT31;56625;54.322;18.582;2023-10-08T05:49:45;7.02;61.84
69436;SHT31;56625;54.322;18.582;2023-10-08T05:52:37;7.10;61.70
69436;SHT31;56625;54.322;18.582;2023-10-08T05:55:30;7.18;61.51
69436;SHT31;56625;54.322;18.582;2023-10-08T05:58:04;7.24;61.36
69436;SHT31;56625;54.322;18.582;2023-10-08T06:00:46;7.31;61.34
69436;SHT31;56625;54.322;18.582;2023-10-08T06:03:18;7.41;61.10
69436;SHT31;56625;54.322;18.582;2023-10-08T06:06:06;7.50;60.94
69436;SHT31;56625;54.322;18.582;2023-10-08T06:08:39;7.59;60.78
69436;SHT31;56625;54.322;18.582;2023-10-08T06:11:27;7.68;60.58
69436;SHT31;56625;54.322;18.582;2023-10-08T06:14:05;7.78;60.59
69436;SHT31;56625;54.322;18.582;2023-10-08T06:16:54;7.85;60.35
69436;SHT31;56625;54.322;18.582;2023-10-08T06:19:41;7.93;59.84
69436;SHT31;56625;54.322;18.582;2023-10-08T06:22:10;8.03;59.64
69436;SHT31;56625;54.322;18.582;2023-10-08T06:24:38;8.09;59.52
69436;SHT31;56625;54.322;18.582;2023-10-08T06:27:06;8.17;59.34
69436;SHT31;56625;54.322;18.582;2023-10-08T06:29:34;8.25;59.28
69436;SHT31;56625;54.322;18.582;2023-10-08T06:32:02;8.31;59.20
69436;SHT31;56625;54.322;18.582;2023-10-08T06:34:32;8.39;59.00
69436;SHT31;56625;54.322;18.582;2023-10-08T06:37:00;8.48;58.96
69436;SHT31;56625;54.322;18.582;2023-10-08T06:39:29;8.58;58.74
69436;SHT31;56625;54.322;18.582;2023-10-08T06:42:15;8.67;58.67
69436;SHT31;56625;54.322;18.582;2023-10-08T06:44:47;8.75;58.50
69436;SHT31;56625;54.322;18.582;2023-10-08T06:47:16;8.84;58.29
69436;SHT31;56625;54.322;18.582;2023-10-08T06:49:44;8.94;58.17
69436;SHT31;56625;54.322;18.582;2023-10-08T06:52:12;9.00;57.54
69436;SHT31;56625;54.322;18.582;2023-10-08T06:54:41;9.05;57.28
69436;SHT31;56625;54.322;18.582;2023-10-08T06:57:09;9.12;57.10
69436;SHT31;56625;54.322;18.582;2023-10-08T06:59:42;9.22;56.89
69436;SHT31;56625;54.322;18.582;2023-10-08T07:02:10;9.33;56.78
69436;SHT31;56625;54.322;18.582;2023-10-08T07:04:38;9.46;56.41
69436;SHT31;56625;54.322;18.582;2023-10-08T07:07:09;9.55;55.62
69436;SHT31;56625;54.322;18.582;2023-10-08T07:09:37;9.61;55.14
69436;SHT31;56625;54.322;18.582;2023-10-08T07:12:05;9.70;55.10
69436;SHT31;56625;54.322;18.582;2023-10-08T07:14:41;9.81;54.89
69436;SHT31;56625;54.322;18.582;2023-10-08T07:17:09;9.91;54.64
69436;SHT31;56625;54.322;18.582;2023-10-08T07:19:47;9.96;53.77
69436;SHT31;56625;54.322;18.582;2023-10-08T07:22:18;10.02;53.72
69436;SHT31;56625;54.322;18.582;2023-10-08T07:24:50;10.15;53.84
69436;SHT31;56625;54.322;18.582;2023-10-08T07:27:20;10.22;52.71
69436;SHT31;56625;54.322;18.582;2023-10-08T07:29:50;10.32;52.67
69436;SHT31;56625;54.322;18.582;2023-10-08T07:32:18;10.36;51.84
69436;SHT31;56625;54.322;18.582;2023-10-08T07:34:46;10.43;51.87
69436;SHT31;56625;54.322;18.582;2023-10-08T07:37:14;10.55;51.72
69436;SHT31;56625;54.322;18.582;2023-10-08T07:39:43;10.59;50.99
69436;SHT31;56625;54.322;18.582;2023-10-08T07:42:15;10.64;50.98
69436;SHT31;56625;54.322;18.582;2023-10-08T07:44:43;10.72;49.75
69436;SHT31;56625;54.322;18.582;2023-10-08T07:47:11;10.79;49.50
69436;SHT31;56625;54.322;18.582;2023-10-08T07:49:41;10.81;49.02
69436;SHT31;56625;54.322;18.582;2023-10-08T07:52:13;10.89;48.43
69436;SHT31;56625;54.322;18.582;2023-10-08T07:54:44;10.91;47.71
69436;SHT31;56625;54.322;18.582;2023-10-08T07:57:12;10.95;47.33
69436;SHT31;56625;54.322;18.582;2023-10-08T07:59:45;11.06;47.75
69436;SHT31;56625;54.322;18.582;2023-10-08T08:02:19;11.18;46.42
69436;SHT31;56625;54.322;18.582;2023-10-08T08:04:50;11.19;45.75
69436;SHT31;56625;54.322;18.582;2023-10-08T08:07:20;11.23;46.00
69436;SHT31;56625;54.322;18.582;2023-10-08T08:09:49;11.35;45.84
69436;SHT31;56625;54.322;18.582;2023-10-08T08:12:20;11.39;45.12
69436;SHT31;56625;54.322;18.582;2023-10-08T08:14:50;11.48;45.16
69436;SHT31;56625;54.322;18.582;2023-10-08T08:17:22;11.56;44.57
69436;SHT31;56625;54.322;18.582;2023-10-08T08:19:52;11.59;44.50
69436;SHT31;56625;54.322;18.582;2023-10-08T08:22:20;11.76;45.04
69436;SHT31;56625;54.322;18.582;2023-10-08T08:24:51;11.84;43.15
69436;SHT31;56625;54.322;18.582;2023-10-08T08:27:32;11.88;42.55
69436;SHT31;56625;54.322;18.582;2023-10-08T08:30:00;11.87;41.66
69436;SHT31;56625;54.322;18.582;2023-10-08T08:32:40;11.81;41.49
69436;SHT31;56625;54.322;18.582;2023-10-08T08:35:20;11.77;41.71
69436;SHT31;56625;54.322;18.582;2023-10-08T08:37:48;11.71;41.88
69436;SHT31;56625;54.322;18.582;2023-10-08T08:40:18;11.69;41.74
69436;SHT31;56625;54.322;18.582;2023-10-08T08:42:48;11.69;42.14
69436;SHT31;56625;54.322;18.582;2023-10-08T08:45:21;11.79;42.59
69436;SHT31;56625;54.322;18.582;2023-10-08T08:47:54;11.90;42.66
69436;SHT31;56625;54.322;18.582;2023-10-08T08:50:23;11.98;41.98
69436;SHT31;56625;54.322;18.582;2023-10-08T08:52:54;11.99;42.05
69436;SHT31;56625;54.322;18.582;2023-10-08T08:55:22;12.07;42.74
69436;SHT31;56625;54.322;18.582;2023-10-08T08:57:50;12.13;42.12
69436;SHT31;56625;54.322;18.582;2023-10-08T09:00:19;12.18;42.12
69436;SHT31;56625;54.322;18.582;2023-10-08T09:02:48;12.17;41.79
69436;SHT31;56625;54.322;18.582;2023-10-08T09:05:18;12.18;41.23
69436;SHT31;56625;54.322;18.582;2023-10-08T09:08:03;12.18;41.01
69436;SHT31;56625;54.322;18.582;2023-10-08T09:10:37;12.21;40.79
69436;SHT31;56625;54.322;18.582;2023-10-08T09:13:22;12.21;39.95
69436;SHT31;56625;54.322;18.582;2023-10-08T09:15:51;12.24;39.75
69436;SHT31;56625;54.322;18.582;2023-10-08T09:18:23;12.27;39.66
69436;SHT31;56625;54.322;18.582;2023-10-08T09:20:55;12.35;39.72
69436;SHT31;56625;54.322;18.582;2023-10-08T09:23:23;12.40;39.80
69436;SHT31;56625;54.322;18.582;2023-10-08T09:25:52;12.52;39.33
69436;SHT31;56625;54.322;18.582;2023-10-08T09:28:31;12.65;39.42
69436;SHT31;56625;54.322;18.582;2023-10-08T09:31:04;12.73;39.16
69436;SHT31;56625;54.322;18.582;2023-10-08T09:33:33;12.77;39.04
69436;SHT31;56625;54.322;18.582;2023-10-08T09:36:02;12.62;39.75
69436;SHT31;56625;54.322;18.582;2023-10-08T09:38:34;12.50;39.62
69436;SHT31;56625;54.322;18.582;2023-10-08T09:41:04;12.44;39.09
69436;SHT31;56625;54.322;18.582;2023-10-08T09:43:36;12.41;37.97
69436;SHT31;56625;54.322;18.582;2023-10-08T09:46:18;12.55;39.14
69436;SHT31;56625;54.322;18.582;2023-10-08T09:48:51;12.72;38.91
69436;SHT31;56625;54.322;18.582;2023-10-08T09:51:22;12.74;38.22
69436;SHT31;56625;54.322;18.582;2023-10-08T09:54:10;12.83;38.61
69436;SHT31;56625;54.322;18.582;2023-10-08T09:56:48;12.96;38.56
69436;SHT31;56625;54.322;18.582;2023-10-08T09:59:16;12.92;38.22
69436;SHT31;56625;54.322;18.582;2023-10-08T10:01:45;12.87;38.68
69436;SHT31;56625;54.322;18.582;2023-10-08T10:04:24;12.86;38.40
69436;SHT31;56625;54.322;18.582;2023-10-08T10:06:56;12.77;37.87
69436;SHT31;56625;54.322;18.582;2023-10-08T10:09:27;12.71;37.93
69436;SHT31;56625;54.322;18.582;2023-10-08T10:11:55;12.79;36.96
69436;SHT31;56625;54.322;18.582;2023-10-08T10:14:24;12.84;37.91
69436;SHT31;56625;54.322;18.582;2023-10-08T10:20:01;12.72;35.09
69436;SHT31;56625;54.322;18.582;2023-10-08T10:22:34;12.69;33.92
69436;SHT31;56625;54.322;18.582;2023-10-08T10:25:03;12.67;33.58
69436;SHT31;56625;54.322;18.582;2023-10-08T10:30:26;12.57;35.28
69436;SHT31;56625;54.322;18.582;2023-10-08T10:32:55;12.52;36.70
69436;SHT31;56625;54.322;18.582;2023-10-08T10:35:28;12.42;37.54
69436;SHT31;56625;54.322;18.582;2023-10-08T10:37:57;12.45;37.24
69436;SHT31;56625;54.322;18.582;2023-10-08T10:40:31;12.48;36.22
69436;SHT31;56625;54.322;18.582;2023-10-08T10:43:23;12.42;36.20
69436;SHT31;56625;54.322;18.582;2023-10-08T10:46:01;12.37;37.28
69436;SHT31;56625;54.322;18.582;2023-10-08T10:49:10;12.44;36.40
69436;SHT31;56625;54.322;18.582;2023-10-08T10:51:59;12.51;34.84
69436;SHT31;56625;54.322;18.582;2023-10-08T10:54:27;12.57;34.80
69436;SHT31;56625;54.322;18.582;2023-10-08T10:57:05;12.61;35.72
69436;SHT31;56625;54.322;18.582;2023-10-08T10:59:38;12.74;36.17
69436;SHT31;56625;54.322;18.582;2023-10-08T11:02:10;12.89;36.33
69436;SHT31;56625;54.322;18.582;2023-10-08T11:04:59;13.00;35.65
69436;SHT31;56625;54.322;18.582;2023-10-08T11:07:35;13.03;35.90
69436;SHT31;56625;54.322;18.582;2023-10-08T11:10:08;13.11;36.00
69436;SHT31;56625;54.322;18.582;2023-10-08T11:12:38;13.20;36.37
69436;SHT31;56625;54.322;18.582;2023-10-08T11:15:15;13.22;36.82
69436;SHT31;56625;54.322;18.582;2023-10-08T11:17:44;13.21;36.40
69436;SHT31;56625;54.322;18.582;2023-10-08T11:20:23;13.19;36.75
69436;SHT31;56625;54.322;18.582;2023-10-08T11:22:55;13.26;36.86
69436;SHT31;56625;54.322;18.582;2023-10-08T11:25:26;13.26;36.84
69436;SHT31;56625;54.322;18.582;2023-10-08T11:27:58;13.27;37.69
69436;SHT31;56625;54.322;18.582;2023-10-08T11:30:36;13.28;37.91
69436;SHT31;56625;54.322;18.582;2023-10-08T11:33:10;13.31;38.11
69436;SHT31;56625;54.322;18.582;2023-10-08T11:36:02;13.21;37.56
69436;SHT31;56625;54.322;18.582;2023-10-08T11:38:37;12.97;38.35
69436;SHT31;56625;54.322;18.582;2023-10-08T11:41:17;12.83;38.64
69436;SHT31;56625;54.322;18.582;2023-10-08T11:43:49;12.74;38.29
69436;SHT31;56625;54.322;18.582;2023-10-08T11:46:22;12.62;37.63
69436;SHT31;56625;54.322;18.582;2023-10-08T11:48:55;12.50;37.99
69436;SHT31;56625;54.322;18.582;2023-10-08T11:51:32;12.54;38.28
69436;SHT31;56625;54.322;18.582;2023-10-08T11:54:02;12.59;38.19
69436;SHT31;56625;54.322;18.582;2023-10-08T11:56:34;12.44;38.23
69436;SHT31;56625;54.322;18.582;2023-10-08T11:59:02;12.46;39.17
69436;SHT31;56625;54.322;18.582;2023-10-08T12:01:36;12.48;39.07
69436;SHT31;56625;54.322;18.582;2023-10-08T12:04:07;12.51;39.65
69436;SHT31;56625;54.322;18.582;2023-10-08T12:06:41;12.53;40.66
69436;SHT31;56625;54.322;18.582;2023-10-08T12:09:19;12.59;40.47
69436;SHT31;56625;54.322;18.582;2023-10-08T12:11:49;12.52;39.77
69436;SHT31;56625;54.322;18.582;2023-10-08T12:14:18;12.41;38.83
69436;SHT31;56625;54.322;18.582;2023-10-08T12:16:46;12.37;39.13
69436;SHT31;56625;54.322;18.582;2023-10-08T12:19:14;12.35;38.85
69436;SHT31;56625;54.322;18.582;2023-10-08T12:21:45;12.30;38.22
69436;SHT31;56625;54.322;18.582;2023-10-08T12:24:15;12.35;39.39
69436;SHT31;56625;54.322;18.582;2023-10-08T12:26:44;12.35;40.18
69436;SHT31;56625;54.322;18.582;2023-10-08T12:29:14;12.35;40.54
69436;SHT31;56625;54.322;18.582;2023-10-08T12:31:44;12.38;40.45
69436;SHT31;56625;54.322;18.582;2023-10-08T12:34:15;12.34;39.10
69436;SHT31;56625;54.322;18.582;2023-10-08T12:36:44;12.33;38.73
69436;SHT31;56625;54.322;18.582;2023-10-08T12:39:15;12.33;38.61
69436;SHT31;56625;54.322;18.582;2023-10-08T12:41:44;12.31;38.14
69436;SHT31;56625;54.322;18.582;2023-10-08T12:44:13;12.29;38.39
69436;SHT31;56625;54.322;18.582;2023-10-08T12:46:43;12.24;39.16
69436;SHT31;56625;54.322;18.582;2023-10-08T12:49:12;12.27;40.20
69436;SHT31;56625;54.322;18.582;2023-10-08T12:51:40;12.24;40.24
69436;SHT31;56625;54.322;18.582;2023-10-08T12:54:09;12.23;39.90
69436;SHT31;56625;54.322;18.582;2023-10-08T12:56:49;12.17;39.87
69436;SHT31;56625;54.322;18.582;2023-10-08T12:59:17;12.10;40.23
69436;SHT31;56625;54.322;18.582;2023-10-08T13:01:49;12.07;40.23
69436;SHT31;56625;54.322;18.582;2023-10-08T13:04:24;12.02;40.24
69436;SHT31;56625;54.322;18.582;2023-10-08T13:06:57;11.98;39.65
69436;SHT31;56625;54.322;18.582;2023-10-08T13:09:30;11.96;39.28
69436;SHT31;56625;54.322;18.582;2023-10-08T13:11:59;11.95;39.95
69436;SHT31;56625;54.322;18.582;2023-10-08T13:14:27;11.94;40.85
69436;SHT31;56625;54.322;18.582;2023-10-08T13:16:55;11.90;40.98
69436;SHT31;56625;54.322;18.582;2023-10-08T13:19:23;11.89;40.63
69436;SHT31;56625;54.322;18.582;2023-10-08T13:21:54;11.83;40.55
69436;SHT31;56625;54.322;18.582;2023-10-08T13:24:21;11.73;40.99
69436;SHT31;56625;54.322;18.582;2023-10-08T13:26:53;11.68;40.78
69436;SHT31;56625;54.322;18.582;2023-10-08T13:29:22;11.66;40.85
69436;SHT31;56625;54.322;18.582;2023-10-08T13:31:51;11.71;41.27
69436;SHT31;56625;54.322;18.582;2023-10-08T13:34:20;11.71;41.72
69436;SHT31;56625;54.322;18.582;2023-10-08T13:36:49;11.74;42.28
69436;SHT31;56625;54.322;18.582;2023-10-08T13:39:22;11.75;42.40
69436;SHT31;56625;54.322;18.582;2023-10-08T13:41:51;11.70;42.89
69436;SHT31;56625;54.322;18.582;2023-10-08T13:44:37;11.72;43.45
69436;SHT31;56625;54.322;18.582;2023-10-08T13:47:07;11.71;43.94
69436;SHT31;56625;54.322;18.582;2023-10-08T13:49:40;11.69;43.50
69436;SHT31;56625;54.322;18.582;2023-10-08T13:52:11;11.70;43.41
69436;SHT31;56625;54.322;18.582;2023-10-08T13:54:39;11.69;43.41
69436;SHT31;56625;54.322;18.582;2023-10-08T13:57:14;11.63;43.75
69436;SHT31;56625;54.322;18.582;2023-10-08T13:59:46;11.61;44.14
69436;SHT31;56625;54.322;18.582;2023-10-08T14:02:16;11.61;44.86
69436;SHT31;56625;54.322;18.582;2023-10-08T14:04:50;11.62;45.39
69436;SHT31;56625;54.322;18.582;2023-10-08T14:07:21;11.63;45.50
69436;SHT31;56625;54.322;18.582;2023-10-08T14:09:49;11.60;45.77
69436;SHT31;56625;54.322;18.582;2023-10-08T14:12:18;11.52;46.06
69436;SHT31;56625;54.322;18.582;2023-10-08T14:14:46;11.44;46.49
69436;SHT31;56625;54.322;18.582;2023-10-08T14:17:17;11.42;46.93
69436;SHT31;56625;54.322;18.582;2023-10-08T14:20:05;11.40;46.85
69436;SHT31;56625;54.322;18.582;2023-10-08T14:22:41;11.33;46.93
69436;SHT31;56625;54.322;18.582;2023-10-08T14:25:09;11.26;47.44
69436;SHT31;56625;54.322;18.582;2023-10-08T14:27:43;11.31;47.75
69436;SHT31;56625;54.322;18.582;2023-10-08T14:30:19;11.32;48.11
69436;SHT31;56625;54.322;18.582;2023-10-08T14:32:52;11.27;48.08
69436;SHT31;56625;54.322;18.582;2023-10-08T14:35:20;11.18;48.28
69436;SHT31;56625;54.322;18.582;2023-10-08T14:38:07;11.02;48.85
69436;SHT31;56625;54.322;18.582;2023-10-08T14:40:55;10.98;49.18
69436;SHT31;56625;54.322;18.582;2023-10-08T14:43:41;10.99;49.27
69436;SHT31;56625;54.322;18.582;2023-10-08T14:46:10;11.00;49.50
69436;SHT31;56625;54.322;18.582;2023-10-08T14:48:39;10.98;49.84
69436;SHT31;56625;54.322;18.582;2023-10-08T14:51:08;10.99;50.15
69436;SHT31;56625;54.322;18.582;2023-10-08T14:53:44;10.94;50.45
69436;SHT31;56625;54.322;18.582;2023-10-08T14:56:12;10.93;50.72
69436;SHT31;56625;54.322;18.582;2023-10-08T14:58:43;10.93;50.92
69436;SHT31;56625;54.322;18.582;2023-10-08T15:01:11;10.94;50.96
69436;SHT31;56625;54.322;18.582;2023-10-08T15:03:41;10.93;50.99
69436;SHT31;56625;54.322;18.582;2023-10-08T15:06:09;10.90;51.03
69436;SHT31;56625;54.322;18.582;2023-10-08T15:08:38;10.89;51.19
69436;SHT31;56625;54.322;18.582;2023-10-08T15:11:06;10.84;51.27
69436;SHT31;56625;54.322;18.582;2023-10-08T15:13:34;10.78;51.43
69436;SHT31;56625;54.322;18.582;2023-10-08T15:16:06;10.73;51.50
69436;SHT31;56625;54.322;18.582;2023-10-08T15:18:34;10.67;51.62
69436;SHT31;56625;54.322;18.582;2023-10-08T15:21:10;10.63;51.72
69436;SHT31;56625;54.322;18.582;2023-10-08T15:23:39;10.59;51.95
69436;SHT31;56625;54.322;18.582;2023-10-08T15:26:07;10.54;51.97
69436;SHT31;56625;54.322;18.582;2023-10-08T15:28:35;10.47;52.31
69436;SHT31;56625;54.322;18.582;2023-10-08T15:31:03;10.41;52.65
69436;SHT31;56625;54.322;18.582;2023-10-08T15:33:38;10.34;52.98
69436;SHT31;56625;54.322;18.582;2023-10-08T15:36:06;10.28;53.38
69436;SHT31;56625;54.322;18.582;2023-10-08T15:38:34;10.18;53.64
69436;SHT31;56625;54.322;18.582;2023-10-08T15:41:02;10.09;53.86
69436;SHT31;56625;54.322;18.582;2023-10-08T15:43:30;10.01;54.16
69436;SHT31;56625;54.322;18.582;2023-10-08T15:45:58;9.91;54.60
69436;SHT31;56625;54.322;18.582;2023-10-08T15:48:27;9.85;54.87
69436;SHT31;56625;54.322;18.582;2023-10-08T15:50:56;9.80;55.04
69436;SHT31;56625;54.322;18.582;2023-10-08T15:53:24;9.74;55.21
69436;SHT31;56625;54.322;18.582;2023-10-08T15:55:53;9.69;55.70
69436;SHT31;56625;54.322;18.582;2023-10-08T15:58:21;9.65;55.67
69436;SHT31;56625;54.322;18.582;2023-10-08T16:00:49;9.60;56.10
69436;SHT31;56625;54.322;18.582;2023-10-08T16:03:17;9.51;56.57